Time;durP1;ratioP1;P1;durP2;ratioP2;P2;SDS_P1;SDS_P2;PMS_P1;PMS_P2;Temp;Humidity;BMP_temperature;BMP_pressure;BME280_temperature;BME280_humidity;BME280_pressure;Samples;Min_cycle;Max_cycle;Signal;HPM_P1;HPM_P2
2021/10/04 00:00:58;;;;;;;3.97;2.47;;;18.30;97.30;;;;;;5077600;28;20517;-82
2021/10/04 00:03:23;;;;;;;2.73;2.50;;;18.30;97.30;;;;;;5077310;28;20241;-80
2021/10/04 00:05:49;;;;;;;5.00;2.90;;;18.30;97.30;;;;;;5077088;28;20186;-81
2021/10/04 00:08:15;;;;;;;4.10;2.47;;;18.30;97.30;;;;;;5077219;28;20270;-80
2021/10/04 00:10:40;;;;;;;3.87;2.60;;;18.30;97.30;;;;;;5076817;28;20227;-81
2021/10/04 00:14:20;;;;;;;3.20;2.50;;;18.30;97.30;;;;;;5107086;22;20206;-91
2021/10/04 00:17:08;;;;;;;2.97;2.33;;;18.30;97.30;;;;;;5066267;28;20264;-90
2021/10/04 00:27:25;;;;;;;5.23;2.23;;;18.20;97.30;;;;;;5050878;28;20481;-90
2021/10/04 00:30:47;;;;;;;2.77;2.17;;;18.20;97.30;;;;;;4972081;28;20894;-91
2021/10/04 00:33:51;;;;;;;3.80;2.57;;;18.20;97.30;;;;;;5023098;28;20456;-90
2021/10/04 00:36:17;;;;;;;2.13;1.87;;;18.20;97.30;;;;;;5011513;28;20430;-90
2021/10/04 00:38:49;;;;;;;3.43;2.40;;;18.20;97.30;;;;;;5073932;28;20904;-90
2021/10/04 00:41:17;;;;;;;4.57;2.40;;;18.20;97.30;;;;;;5090687;28;20175;-91
2021/10/04 00:43:43;;;;;;;3.90;2.37;;;18.20;97.30;;;;;;5094738;22;20592;-82
2021/10/04 00:46:08;;;;;;;3.50;2.67;;;18.20;97.30;;;;;;5080726;28;20449;-82
2021/10/04 00:48:34;;;;;;;2.47;2.10;;;18.20;97.30;;;;;;5080317;28;20262;-82
2021/10/04 00:51:00;;;;;;;2.67;1.83;;;18.20;97.30;;;;;;5080810;28;20206;-83
2021/10/04 00:53:25;;;;;;;4.03;2.23;;;18.20;97.30;;;;;;5082009;28;20198;-82
2021/10/04 00:55:51;;;;;;;3.23;2.60;;;18.20;97.30;;;;;;5079534;28;20175;-82
2021/10/04 00:58:17;;;;;;;2.70;2.60;;;18.10;97.30;;;;;;5078822;28;20175;-82
2021/10/04 01:00:43;;;;;;;2.80;2.13;;;18.10;97.30;;;;;;5079391;28;20210;-82
2021/10/04 01:03:08;;;;;;;3.07;2.47;;;18.10;97.30;;;;;;5079409;28;20214;-82
2021/10/04 01:05:34;;;;;;;2.30;2.10;;;18.10;97.30;;;;;;5077064;28;20417;-83
2021/10/04 01:08:00;;;;;;;3.33;2.50;;;18.00;97.30;;;;;;5060312;28;20171;-83
2021/10/04 01:10:26;;;;;;;4.50;2.60;;;17.90;97.30;;;;;;5059314;28;20203;-82
2021/10/04 01:12:53;;;;;;;3.07;2.30;;;17.90;97.30;;;;;;5059091;28;20183;-83
2021/10/04 01:15:20;;;;;;;5.90;2.30;;;17.80;97.30;;;;;;5060155;28;20422;-82
2021/10/04 01:17:46;;;;;;;2.97;1.97;;;17.80;97.30;;;;;;5059548;28;20429;-83
2021/10/04 01:20:12;;;;;;;4.63;1.87;;;17.70;97.30;;;;;;5058453;28;20844;-83
2021/10/04 01:22:38;;;;;;;3.27;2.40;;;17.70;97.30;;;;;;5061439;28;20406;-83
2021/10/04 01:25:05;;;;;;;2.70;2.13;;;17.70;97.30;;;;;;5061881;28;20464;-83
2021/10/04 01:27:31;;;;;;;3.47;2.00;;;17.70;97.30;;;;;;5057384;28;21203;-83
2021/10/04 01:29:57;;;;;;;4.47;2.27;;;17.70;97.30;;;;;;5058919;28;20415;-83
2021/10/04 01:32:22;;;;;;;3.70;2.40;;;17.70;97.30;;;;;;5058919;28;20200;-82
2021/10/04 01:34:48;;;;;;;3.73;2.33;;;17.60;97.30;;;;;;5058616;28;20521;-82
2021/10/04 01:37:13;;;;;;;3.20;2.27;;;17.60;97.30;;;;;;5058492;28;20278;-82
2021/10/04 01:39:39;;;;;;;2.90;2.10;;;17.60;97.30;;;;;;5059198;28;20195;-83
2021/10/04 01:42:05;;;;;;;4.60;2.60;;;17.50;97.30;;;;;;5059502;28;20583;-83
2021/10/04 01:44:31;;;;;;;3.03;1.93;;;17.50;97.30;;;;;;5060051;28;20223;-83
2021/10/04 01:46:56;;;;;;;2.97;2.30;;;17.50;97.30;;;;;;5058339;28;20497;-83
2021/10/04 01:49:22;;;;;;;3.50;2.50;;;17.40;97.30;;;;;;5070799;28;20182;-82
2021/10/04 01:51:47;;;;;;;3.27;2.37;;;17.40;97.30;;;;;;5080290;28;20253;-82
2021/10/04 01:54:13;;;;;;;3.30;2.40;;;17.40;97.30;;;;;;5078957;28;20195;-82
2021/10/04 01:56:38;;;;;;;3.00;1.77;;;17.40;97.30;;;;;;5079546;28;21036;-82
2021/10/04 01:59:04;;;;;;;3.50;2.50;;;17.40;97.30;;;;;;5079118;28;20167;-82
2021/10/04 02:01:30;;;;;;;4.27;2.10;;;17.40;97.30;;;;;;5079590;28;20229;-82
2021/10/04 02:03:57;;;;;;;3.90;2.07;;;17.40;97.30;;;;;;5078351;28;20219;-83
2021/10/04 02:06:22;;;;;;;3.30;2.20;;;17.40;97.30;;;;;;5079670;28;21090;-82
2021/10/04 02:08:48;;;;;;;6.07;2.77;;;17.40;97.30;;;;;;5079195;28;20413;-83
2021/10/04 02:11:13;;;;;;;3.97;2.37;;;17.30;97.30;;;;;;5079497;28;20213;-82
2021/10/04 02:13:40;;;;;;;3.10;2.30;;;17.30;97.30;;;;;;5077352;28;20198;-83
2021/10/04 02:16:05;;;;;;;3.80;2.03;;;17.20;97.30;;;;;;5076663;28;20228;-83
2021/10/04 02:18:31;;;;;;;3.47;2.60;;;17.20;97.30;;;;;;5079352;28;20406;-83
2021/10/04 02:20:57;;;;;;;6.33;2.77;;;17.20;97.30;;;;;;5078095;28;20690;-83
2021/10/04 02:23:22;;;;;;;3.97;3.00;;;17.10;97.30;;;;;;5077612;28;20195;-83
2021/10/04 02:25:49;;;;;;;4.63;2.77;;;17.00;97.30;;;;;;5078143;28;20187;-81
2021/10/04 02:28:17;;;;;;;5.60;2.80;;;17.00;97.30;;;;;;5077961;28;20237;-83
2021/10/04 02:30:43;;;;;;;5.37;3.30;;;16.90;97.30;;;;;;5077440;28;20467;-83
2021/10/04 02:33:08;;;;;;;4.93;3.17;;;16.90;97.30;;;;;;5078231;28;20417;-83
2021/10/04 02:35:35;;;;;;;6.73;3.87;;;16.80;97.30;;;;;;5077268;28;20513;-83
2021/10/04 02:38:01;;;;;;;4.67;2.73;;;16.80;97.30;;;;;;5077590;28;20628;-83
2021/10/04 02:40:27;;;;;;;5.80;3.47;;;16.70;97.30;;;;;;5081415;28;20471;-83
2021/10/04 02:42:53;;;;;;;5.37;3.77;;;16.70;97.30;;;;;;5082103;28;20417;-83
2021/10/04 02:45:21;;;;;;;5.20;3.40;;;16.70;97.30;;;;;;5080320;28;20432;-83
2021/10/04 02:47:49;;;;;;;10.33;3.80;;;16.60;97.30;;;;;;5079723;28;20414;-83
2021/10/04 02:50:19;;;;;;;8.47;3.73;;;16.60;97.30;;;;;;5079730;28;20420;-84
2021/10/04 02:52:45;;;;;;;4.77;3.73;;;16.60;97.30;;;;;;5080624;28;20502;-83
2021/10/04 02:55:11;;;;;;;10.77;4.03;;;16.60;97.30;;;;;;5079674;28;20479;-83
2021/10/04 02:57:37;;;;;;;7.53;3.93;;;16.60;97.30;;;;;;5079778;28;20467;-83
2021/10/04 03:00:05;;;;;;;6.83;4.00;;;16.50;97.30;;;;;;5064640;28;20172;-83
2021/10/04 03:02:31;;;;;;;8.33;4.17;;;16.50;97.30;;;;;;5059059;28;20458;-83
2021/10/04 03:04:57;;;;;;;7.70;4.43;;;16.50;97.30;;;;;;5061026;28;20567;-82
2021/10/04 03:07:22;;;;;;;8.93;4.20;;;16.40;97.30;;;;;;5063052;28;20438;-82
2021/10/04 03:09:48;;;;;;;11.23;5.60;;;16.40;97.30;;;;;;5062175;28;20824;-83
2021/10/04 03:12:13;;;;;;;8.63;4.53;;;16.40;97.30;;;;;;5062440;28;20207;-82
2021/10/04 03:14:39;;;;;;;7.50;3.60;;;16.40;97.30;;;;;;5061414;28;20291;-82
2021/10/04 03:17:05;;;;;;;8.47;4.10;;;16.40;97.30;;;;;;5060197;28;20558;-83
2021/10/04 03:19:30;;;;;;;9.03;4.63;;;16.40;97.30;;;;;;5058532;28;20179;-83
2021/10/04 03:21:56;;;;;;;8.90;4.87;;;16.40;97.30;;;;;;5058846;28;20186;-84
2021/10/04 03:24:21;;;;;;;8.67;4.73;;;16.40;97.30;;;;;;5058768;28;20300;-83
2021/10/04 03:26:47;;;;;;;8.00;4.10;;;16.30;97.30;;;;;;5058365;28;20182;-84
2021/10/04 03:29:16;;;;;;;7.97;4.20;;;16.30;97.30;;;;;;5058024;28;20262;-83
2021/10/04 03:31:42;;;;;;;11.53;5.20;;;16.20;97.30;;;;;;5057926;28;20218;-83
2021/10/04 03:34:08;;;;;;;9.77;4.47;;;16.20;97.30;;;;;;5062660;28;20969;-82
2021/10/04 03:36:33;;;;;;;9.73;4.80;;;16.20;97.30;;;;;;5061311;28;20416;-82
2021/10/04 03:38:59;;;;;;;8.47;3.90;;;16.20;97.30;;;;;;5062104;28;20187;-83
2021/10/04 03:41:25;;;;;;;12.63;5.00;;;16.20;97.30;;;;;;5063781;28;20206;-83
2021/10/04 03:43:51;;;;;;;7.70;4.80;;;16.20;97.30;;;;;;5061212;28;20293;-83
2021/10/04 03:46:17;;;;;;;8.73;4.57;;;16.20;97.30;;;;;;5061808;28;20175;-82
2021/10/04 03:48:42;;;;;;;8.27;4.37;;;16.20;97.30;;;;;;5061292;28;20414;-83
2021/10/04 03:51:08;;;;;;;8.60;5.10;;;16.20;97.30;;;;;;5061353;28;20450;-82
2021/10/04 03:53:34;;;;;;;8.30;4.70;;;16.20;97.30;;;;;;5062101;28;20227;-82
2021/10/04 03:55:59;;;;;;;7.80;4.20;;;16.20;97.30;;;;;;5062378;28;20629;-83
2021/10/04 03:58:25;;;;;;;7.43;4.40;;;16.10;97.30;;;;;;5063664;28;20211;-82
2021/10/04 04:00:51;;;;;;;8.20;4.33;;;16.10;97.30;;;;;;5062224;28;20855;-83
2021/10/04 04:03:16;;;;;;;11.37;5.57;;;16.10;97.30;;;;;;5062093;28;20203;-83
2021/10/04 04:05:42;;;;;;;10.03;5.70;;;16.10;97.30;;;;;;5069946;28;20195;-83
2021/10/04 04:08:08;;;;;;;10.43;4.30;;;16.10;97.30;;;;;;5078215;28;20198;-83
2021/10/04 04:10:33;;;;;;;10.40;5.20;;;16.10;97.30;;;;;;5078023;28;20203;-83
2021/10/04 04:12:59;;;;;;;11.80;4.37;;;16.10;97.30;;;;;;5076943;28;20182;-83
2021/10/04 04:15:25;;;;;;;10.20;4.33;;;16.10;97.30;;;;;;5075179;28;20183;-81
2021/10/04 04:17:50;;;;;;;14.43;5.23;;;16.00;97.30;;;;;;5074459;28;20452;-82
2021/10/04 04:20:16;;;;;;;10.40;4.60;;;16.00;97.30;;;;;;5058065;28;20167;-82
2021/10/04 04:22:43;;;;;;;11.17;5.03;;;16.00;97.30;;;;;;5073714;28;20183;-82
2021/10/04 04:25:10;;;;;;;10.37;4.27;;;16.00;97.30;;;;;;5073948;28;20207;-82
2021/10/04 04:27:36;;;;;;;9.07;5.10;;;16.00;97.30;;;;;;5058091;28;20422;-83
2021/10/04 04:30:04;;;;;;;7.23;4.20;;;16.00;97.30;;;;;;5075316;28;20433;-84
2021/10/04 04:32:30;;;;;;;6.80;3.80;;;16.00;97.30;;;;;;5075906;28;20465;-83
2021/10/04 04:34:55;;;;;;;6.50;3.90;;;16.00;97.30;;;;;;5055338;28;20426;-84
2021/10/04 04:37:22;;;;;;;5.40;3.43;;;15.90;97.30;;;;;;5071370;28;20168;-84
2021/10/04 04:39:47;;;;;;;4.80;3.40;;;15.90;97.30;;;;;;5072088;28;20637;-84
2021/10/04 04:42:13;;;;;;;4.37;2.57;;;15.80;97.30;;;;;;5057882;28;20411;-83
2021/10/04 04:44:38;;;;;;;6.87;2.70;;;15.80;97.30;;;;;;5058965;28;20720;-83
2021/10/04 04:47:04;;;;;;;3.70;2.20;;;15.70;97.30;;;;;;5057679;28;20182;-83
2021/10/04 04:49:30;;;;;;;2.23;1.67;;;15.70;97.30;;;;;;5073817;28;20664;-84
2021/10/04 04:51:57;;;;;;;2.80;1.83;;;15.70;97.30;;;;;;5074076;28;20226;-83
2021/10/04 04:54:24;;;;;;;2.60;1.77;;;15.60;97.30;;;;;;5074155;28;20198;-84
2021/10/04 04:56:50;;;;;;;2.60;1.77;;;15.60;97.30;;;;;;5056777;28;20527;-84
2021/10/04 04:59:16;;;;;;;2.27;2.07;;;15.60;97.30;;;;;;5072659;28;20432;-84
2021/10/04 05:01:43;;;;;;;2.47;1.90;;;15.60;97.30;;;;;;5071135;28;20410;-84
2021/10/04 05:04:11;;;;;;;3.90;2.43;;;15.60;97.30;;;;;;5073960;28;20476;-84
2021/10/04 05:06:36;;;;;;;3.00;2.40;;;15.60;97.30;;;;;;5073799;28;20417;-84
2021/10/04 05:09:03;;;;;;;3.60;2.50;;;15.50;97.30;;;;;;5074019;28;20414;-84
2021/10/04 05:11:29;;;;;;;2.53;2.17;;;15.50;97.30;;;;;;5074853;28;20222;-84
2021/10/04 05:13:54;;;;;;;3.03;2.17;;;15.50;97.30;;;;;;5073528;28;20430;-85
2021/10/04 05:16:20;;;;;;;3.47;2.10;;;15.50;97.30;;;;;;5073522;28;20611;-84
2021/10/04 05:18:45;;;;;;;2.40;2.00;;;15.50;97.30;;;;;;5073337;28;20246;-84
2021/10/04 05:21:11;;;;;;;4.93;2.30;;;15.50;97.30;;;;;;5073515;28;20201;-84
2021/10/04 05:23:37;;;;;;;4.03;2.53;;;15.50;97.30;;;;;;5073583;28;20716;-84
2021/10/04 05:26:03;;;;;;;2.50;2.03;;;15.40;97.30;;;;;;5074089;28;20179;-84
2021/10/04 05:28:29;;;;;;;2.80;2.00;;;15.40;97.30;;;;;;5075156;28;20175;-84
2021/10/04 05:30:54;;;;;;;4.90;2.87;;;15.40;97.30;;;;;;5076151;28;20874;-83
2021/10/04 05:33:21;;;;;;;4.33;2.80;;;15.30;97.30;;;;;;5060281;28;20191;-84
2021/10/04 05:35:46;;;;;;;4.57;2.37;;;15.30;97.30;;;;;;5076502;28;20688;-83
2021/10/04 05:38:12;;;;;;;3.80;2.27;;;15.30;97.30;;;;;;5076445;28;20433;-83
2021/10/04 05:40:38;;;;;;;5.23;2.60;;;15.30;97.30;;;;;;5077334;28;20710;-83
2021/10/04 05:43:04;;;;;;;3.50;2.30;;;15.30;97.30;;;;;;5075617;28;20650;-84
2021/10/04 05:45:31;;;;;;;4.67;2.77;;;15.30;97.30;;;;;;5075365;28;20171;-85
2021/10/04 05:47:57;;;;;;;3.83;2.37;;;15.30;97.30;;;;;;5074781;28;20186;-84
2021/10/04 05:50:25;;;;;;;3.70;2.47;;;15.30;97.30;;;;;;5075910;28;20421;-83
2021/10/04 05:52:52;;;;;;;3.63;2.37;;;15.30;97.30;;;;;;5076940;28;20168;-83
2021/10/04 05:55:18;;;;;;;3.37;2.20;;;15.30;97.30;;;;;;5076814;28;20414;-83
2021/10/04 05:57:44;;;;;;;4.47;2.60;;;15.30;97.30;;;;;;5078038;28;20424;-83
2021/10/04 06:00:12;;;;;;;5.13;2.53;;;15.30;97.30;;;;;;5079781;28;20426;-83
2021/10/04 06:02:38;;;;;;;5.33;2.87;;;15.30;97.30;;;;;;5076905;28;20467;-83
2021/10/04 06:05:06;;;;;;;4.30;2.70;;;15.20;97.30;;;;;;5076965;28;20448;-83
2021/10/04 06:07:31;;;;;;;3.40;2.63;;;15.30;97.30;;;;;;5079015;28;20771;-83
2021/10/04 06:09:57;;;;;;;5.00;3.00;;;15.30;97.30;;;;;;5076941;28;20405;-82
2021/10/04 06:12:28;;;;;;;4.70;2.73;;;15.30;97.30;;;;;;5076641;28;20190;-83
2021/10/04 06:14:59;;;;;;;4.20;2.83;;;15.30;97.30;;;;;;5075836;28;20194;-83
2021/10/04 06:17:25;;;;;;;4.63;3.07;;;15.30;97.30;;;;;;5076040;28;20490;-83
2021/10/04 06:19:51;;;;;;;5.30;2.70;;;15.30;97.30;;;;;;5077762;28;20405;-83
2021/10/04 06:22:19;;;;;;;3.30;2.60;;;15.30;97.30;;;;;;5076423;28;20496;-83
2021/10/04 06:24:44;;;;;;;3.40;2.80;;;15.20;97.30;;;;;;5075969;28;20512;-83
2021/10/04 06:27:11;;;;;;;4.07;3.10;;;15.30;97.30;;;;;;5076751;28;20449;-81
2021/10/04 06:29:37;;;;;;;3.30;2.43;;;15.20;97.30;;;;;;5073940;28;20175;-84
2021/10/04 06:32:06;;;;;;;5.87;3.13;;;15.30;97.30;;;;;;5073147;28;20455;-84
2021/10/04 06:34:32;;;;;;;3.37;2.00;;;15.30;97.30;;;;;;5072942;28;20438;-84
2021/10/04 06:36:58;;;;;;;4.97;3.10;;;15.30;97.30;;;;;;5073911;28;21002;-84
2021/10/04 06:39:24;;;;;;;4.30;2.83;;;15.30;97.30;;;;;;5073540;28;20171;-84
2021/10/04 06:41:50;;;;;;;7.23;2.93;;;15.30;97.30;;;;;;5073761;28;20428;-84
2021/10/04 06:44:15;;;;;;;5.20;2.90;;;15.30;97.30;;;;;;5069200;28;20231;-84
2021/10/04 06:46:41;;;;;;;6.70;2.90;;;15.30;97.30;;;;;;5062746;28;20221;-84
2021/10/04 06:49:06;;;;;;;4.50;2.40;;;15.30;97.30;;;;;;5072162;28;20182;-84
2021/10/04 06:51:32;;;;;;;4.37;3.17;;;15.30;97.30;;;;;;5071946;28;20199;-87
2021/10/04 06:53:58;;;;;;;5.90;3.00;;;15.30;97.30;;;;;;5072284;28;20249;-84
2021/10/04 06:56:24;;;;;;;4.83;2.90;;;15.30;97.30;;;;;;5072469;28;20175;-85
2021/10/04 06:58:49;;;;;;;6.27;3.17;;;15.30;97.30;;;;;;5072146;28;20175;-86
2021/10/04 07:01:15;;;;;;;5.93;2.70;;;15.30;97.30;;;;;;5072485;28;20209;-85
2021/10/04 07:03:40;;;;;;;4.07;2.53;;;15.30;97.30;;;;;;5072006;28;20198;-85
2021/10/04 07:06:06;;;;;;;4.67;2.53;;;15.30;97.30;;;;;;5073273;28;20221;-85
2021/10/04 07:08:32;;;;;;;4.77;2.40;;;15.30;97.30;;;;;;5071839;28;20214;-85
2021/10/04 07:10:57;;;;;;;6.60;2.53;;;15.30;97.30;;;;;;5071861;28;20195;-85
2021/10/04 07:13:23;;;;;;;3.90;2.80;;;15.30;97.30;;;;;;5071616;28;20274;-84
2021/10/04 07:15:49;;;;;;;5.37;3.30;;;15.40;97.30;;;;;;5071794;28;20671;-85
2021/10/04 07:18:16;;;;;;;4.70;2.63;;;15.30;97.30;;;;;;5071719;28;20797;-85
2021/10/04 07:20:41;;;;;;;13.00;3.77;;;15.30;97.30;;;;;;5071631;28;20266;-85
2021/10/04 07:23:07;;;;;;;5.83;2.90;;;15.30;97.30;;;;;;5070988;28;20441;-85
2021/10/04 07:25:34;;;;;;;4.97;2.73;;;15.30;97.30;;;;;;5075047;28;20175;-86
2021/10/04 07:28:01;;;;;;;5.80;3.03;;;15.30;97.30;;;;;;5075574;28;20175;-86
2021/10/04 07:30:27;;;;;;;5.90;2.70;;;15.30;97.30;;;;;;5076092;28;20786;-85
2021/10/04 07:32:55;;;;;;;3.40;2.80;;;15.20;97.30;;;;;;5076078;28;20509;-85
2021/10/04 07:35:21;;;;;;;3.33;2.60;;;15.20;97.30;;;;;;5075802;28;20455;-86
2021/10/04 07:37:47;;;;;;;5.70;2.90;;;15.30;97.30;;;;;;5075528;28;20919;-86
2021/10/04 07:40:13;;;;;;;3.40;2.50;;;15.30;97.30;;;;;;5074899;28;20413;-85
2021/10/04 07:42:39;;;;;;;5.20;3.20;;;15.30;97.30;;;;;;5075443;28;20171;-85
2021/10/04 07:45:05;;;;;;;3.70;2.43;;;15.30;97.30;;;;;;5074990;28;20469;-85
2021/10/04 07:47:31;;;;;;;5.40;3.43;;;15.40;97.30;;;;;;5075131;28;20293;-86
2021/10/04 07:49:56;;;;;;;4.33;2.50;;;15.40;97.30;;;;;;5075143;28;20473;-86
2021/10/04 07:52:22;;;;;;;4.03;2.27;;;15.40;97.30;;;;;;5075121;28;20206;-85
2021/10/04 07:54:48;;;;;;;4.50;2.73;;;15.40;97.30;;;;;;5075128;28;20199;-85
2021/10/04 07:57:15;;;;;;;2.70;2.17;;;15.50;97.30;;;;;;5074906;28;20547;-86
2021/10/04 07:59:41;;;;;;;4.90;2.73;;;15.50;97.30;;;;;;5074465;28;20179;-86
2021/10/04 08:02:10;;;;;;;3.50;2.80;;;15.50;97.30;;;;;;5074620;28;20413;-87
2021/10/04 08:04:36;;;;;;;2.70;2.03;;;15.50;97.30;;;;;;5074656;28;20441;-86
2021/10/04 08:07:03;;;;;;;4.13;2.53;;;15.50;97.30;;;;;;5074449;28;20428;-86
2021/10/04 08:09:29;;;;;;;13.83;2.60;;;15.50;97.30;;;;;;5074560;28;20413;-87
2021/10/04 08:11:55;;;;;;;3.40;2.30;;;15.50;97.30;;;;;;5074355;28;20457;-86
2021/10/04 08:14:21;;;;;;;3.63;2.40;;;15.50;97.30;;;;;;5074406;28;20660;-86
2021/10/04 08:16:46;;;;;;;3.50;2.00;;;15.50;97.30;;;;;;5074388;28;20168;-87
2021/10/04 08:19:12;;;;;;;2.80;2.10;;;15.50;97.30;;;;;;5093525;22;20182;-85
2021/10/04 08:21:38;;;;;;;8.27;1.80;;;15.50;97.30;;;;;;5060786;28;20529;-83
2021/10/04 08:24:03;;;;;;;3.70;2.03;;;15.50;97.30;;;;;;5063392;28;20196;-83
2021/10/04 08:26:30;;;;;;;2.60;1.80;;;15.50;97.30;;;;;;5060897;28;20647;-84
2021/10/04 08:28:56;;;;;;;1.93;1.77;;;15.50;97.30;;;;;;5066633;28;20756;-80
2021/10/04 08:31:22;;;;;;;4.03;2.57;;;15.50;97.30;;;;;;5062767;28;20446;-83
2021/10/04 08:33:50;;;;;;;3.27;2.53;;;15.50;97.30;;;;;;5063035;28;20936;-83
2021/10/04 08:36:16;;;;;;;3.20;2.00;;;15.50;97.30;;;;;;5067285;28;20406;-82
2021/10/04 08:38:41;;;;;;;2.27;1.73;;;15.50;97.30;;;;;;5073489;28;20853;-83
2021/10/04 08:41:07;;;;;;;3.03;1.93;;;15.50;97.30;;;;;;5075485;28;20677;-83
2021/10/04 08:43:40;;;;;;;2.10;2.00;;;15.50;97.30;;;;;;5074620;28;20270;-83
2021/10/04 08:46:05;;;;;;;1.83;1.77;;;15.50;97.30;;;;;;5071476;28;20176;-83
2021/10/04 08:48:31;;;;;;;2.63;1.97;;;15.50;97.30;;;;;;5073496;28;20456;-83
2021/10/04 08:50:57;;;;;;;4.30;2.57;;;15.50;97.30;;;;;;5061776;28;20287;-83
2021/10/04 08:53:23;;;;;;;9.40;2.97;;;15.50;97.30;;;;;;5054138;28;20168;-82
2021/10/04 08:55:49;;;;;;;8.47;2.70;;;15.40;97.30;;;;;;5053430;28;20418;-82
2021/10/04 08:58:15;;;;;;;3.13;2.40;;;15.40;97.30;;;;;;5060034;28;20424;-83
2021/10/04 09:00:40;;;;;;;6.10;2.47;;;15.40;97.30;;;;;;5074456;28;20191;-82
2021/10/04 09:03:06;;;;;;;7.63;2.60;;;15.40;97.30;;;;;;5075077;28;20229;-84
2021/10/04 09:05:33;;;;;;;5.63;3.10;;;15.50;97.30;;;;;;5076102;28;20175;-83
2021/10/04 09:08:07;;;;;;;8.33;2.80;;;15.50;97.30;;;;;;5068502;28;20175;-83
2021/10/04 09:10:34;;;;;;;3.33;2.07;;;15.50;97.30;;;;;;5074243;28;20486;-83
2021/10/04 09:13:06;;;;;;;4.50;2.47;;;15.50;97.30;;;;;;5057757;28;20413;-83
2021/10/04 09:15:40;;;;;;;5.80;2.40;;;15.50;97.30;;;;;;5073877;28;20414;-83
2021/10/04 09:18:09;;;;;;;6.60;2.77;;;15.50;97.30;;;;;;5073048;28;20635;-83
2021/10/04 09:21:02;;;;;;;7.60;2.67;;;15.50;97.30;;;;;;5072867;28;20463;-83
2021/10/04 09:23:32;;;;;;;4.67;2.80;;;15.50;97.30;;;;;;5073182;28;20417;-83
2021/10/04 09:26:02;;;;;;;2.90;2.20;;;15.50;97.30;;;;;;5073970;28;20410;-82
2021/10/04 09:28:36;;;;;;;4.57;2.40;;;15.50;97.30;;;;;;5074260;28;20494;-83
2021/10/04 09:31:25;;;;;;;2.50;2.10;;;15.50;97.30;;;;;;5074135;28;20827;-86
2021/10/04 09:34:20;;;;;;;4.50;1.83;;;15.40;97.30;;;;;;5073231;28;20414;-84
2021/10/04 09:36:55;;;;;;;3.53;1.73;;;15.40;97.30;;;;;;5051689;28;20415;-83
2021/10/04 09:39:25;;;;;;;6.83;2.53;;;15.40;97.30;;;;;;5083798;28;20425;-83
2021/10/04 09:42:12;;;;;;;3.57;1.90;;;15.40;97.30;;;;;;5068185;28;20429;-82
2021/10/04 09:44:43;;;;;;;6.20;2.07;;;15.40;97.30;;;;;;5072575;28;20421;-82
2021/10/04 09:47:15;;;;;;;3.87;2.10;;;15.40;97.30;;;;;;5072984;28;20860;-81
2021/10/04 09:49:54;;;;;;;3.57;2.13;;;15.40;97.30;;;;;;5070175;28;20855;-83
2021/10/04 09:52:33;;;;;;;2.60;1.93;;;15.50;97.30;;;;;;5076205;28;20445;-82
2021/10/04 09:54:59;;;;;;;3.70;2.30;;;15.50;97.30;;;;;;5075101;28;20474;-81
2021/10/04 09:57:24;;;;;;;4.43;2.13;;;15.50;97.30;;;;;;5074337;28;20413;-83
2021/10/04 09:59:50;;;;;;;2.70;2.20;;;15.50;97.30;;;;;;5072893;28;20191;-82
2021/10/04 10:02:18;;;;;;;3.10;1.80;;;15.50;97.30;;;;;;5074041;28;20604;-84
2021/10/04 10:04:45;;;;;;;2.60;1.90;;;15.50;97.30;;;;;;5073694;28;20321;-82
2021/10/04 10:07:11;;;;;;;3.70;2.37;;;15.50;97.30;;;;;;5074806;28;20433;-82
2021/10/04 10:09:41;;;;;;;5.00;2.20;;;15.40;97.30;;;;;;5072923;28;20956;-81
2021/10/04 10:12:09;;;;;;;3.97;2.10;;;15.50;97.30;;;;;;5073581;28;20253;-81
2021/10/04 10:14:52;;;;;;;4.93;2.67;;;15.50;97.30;;;;;;5072549;28;20435;-81
2021/10/04 10:17:23;;;;;;;3.63;2.63;;;15.40;97.30;;;;;;5073653;28;20782;-82
2021/10/04 10:19:53;;;;;;;3.50;2.30;;;15.40;97.30;;;;;;5074525;28;20470;-81
2021/10/04 10:22:19;;;;;;;1.90;1.80;;;15.40;97.30;;;;;;5074949;28;20413;-80
2021/10/04 10:24:46;;;;;;;2.97;1.70;;;15.40;97.30;;;;;;5073723;28;20453;-81
2021/10/04 10:27:13;;;;;;;3.67;2.20;;;15.40;97.30;;;;;;5074177;28;20421;-81
2021/10/04 10:29:40;;;;;;;5.70;2.33;;;15.40;97.30;;;;;;5074094;28;20469;-81
2021/10/04 10:32:12;;;;;;;7.20;3.57;;;15.40;97.30;;;;;;5073137;28;20514;-83
2021/10/04 10:34:39;;;;;;;6.17;2.80;;;15.30;97.30;;;;;;5075220;28;20830;-83
2021/10/04 10:37:14;;;;;;;6.87;3.20;;;15.30;97.30;;;;;;5073555;28;20424;-82
2021/10/04 10:40:12;;;;;;;6.97;3.53;;;15.20;97.30;;;;;;5073277;28;20429;-84
2021/10/04 10:42:41;;;;;;;5.33;3.40;;;15.20;97.30;;;;;;5075532;28;20408;-83
2021/10/04 10:45:08;;;;;;;4.53;3.27;;;15.10;97.30;;;;;;5075361;28;20413;-83
2021/10/04 10:47:34;;;;;;;4.40;3.30;;;15.10;97.30;;;;;;5073508;28;20421;-84
2021/10/04 10:50:13;;;;;;;9.17;4.47;;;15.10;97.30;;;;;;5073484;28;20441;-84
2021/10/04 10:52:39;;;;;;;6.93;3.40;;;15.10;97.30;;;;;;5073055;28;20498;-83
2021/10/04 10:55:28;;;;;;;5.07;3.30;;;15.10;97.30;;;;;;5072992;28;20779;-82
2021/10/04 10:58:01;;;;;;;6.37;4.00;;;15.20;97.30;;;;;;5071803;28;20412;-82
2021/10/04 11:00:32;;;;;;;7.17;3.43;;;15.20;97.30;;;;;;5054976;28;20433;-82
2021/10/04 11:03:15;;;;;;;3.70;2.60;;;15.10;97.30;;;;;;5058029;28;20394;-83
2021/10/04 11:05:41;;;;;;;4.63;3.10;;;15.10;97.30;;;;;;5072988;28;20413;-82
2021/10/04 11:08:10;;;;;;;5.27;3.00;;;15.10;97.30;;;;;;5078989;28;20425;-84
2021/10/04 11:10:56;;;;;;;5.80;3.47;;;15.10;97.30;;;;;;5079444;28;20191;-84
2021/10/04 11:13:47;;;;;;;4.63;3.30;;;15.00;97.30;;;;;;5076922;28;20410;-85
2021/10/04 11:16:12;;;;;;;4.50;3.00;;;15.10;97.30;;;;;;5077174;28;20448;-83
2021/10/04 11:18:43;;;;;;;6.23;3.37;;;15.10;97.30;;;;;;5074619;28;20447;-85
2021/10/04 11:21:18;;;;;;;8.93;4.10;;;15.00;97.30;;;;;;5074215;28;20245;-84
2021/10/04 11:23:46;;;;;;;5.00;3.40;;;15.00;97.30;;;;;;5075505;28;20416;-84
2021/10/04 11:26:14;;;;;;;10.47;4.20;;;15.00;97.30;;;;;;5075327;28;20459;-85
2021/10/04 11:28:46;;;;;;;7.93;4.50;;;14.90;97.30;;;;;;5074724;28;20509;-85
2021/10/04 11:31:14;;;;;;;8.60;5.23;;;14.90;97.30;;;;;;5072903;28;20550;-85
2021/10/04 11:33:51;;;;;;;7.83;4.13;;;14.90;97.30;;;;;;5066178;28;20407;-85
2021/10/04 11:36:19;;;;;;;8.50;4.57;;;14.90;97.30;;;;;;5074543;28;20413;-85
2021/10/04 11:38:53;;;;;;;7.07;4.20;;;14.90;97.30;;;;;;5074084;28;20405;-81
2021/10/04 11:41:24;;;;;;;8.97;4.40;;;14.90;97.30;;;;;;5075568;28;20444;-85
2021/10/04 11:43:54;;;;;;;12.93;5.10;;;14.90;97.30;;;;;;5075664;28;20443;-85
2021/10/04 11:46:24;;;;;;;10.43;4.60;;;14.90;97.30;;;;;;5075001;28;20788;-84
2021/10/04 11:48:49;;;;;;;12.00;5.10;;;15.00;97.30;;;;;;5061097;28;20420;-85
2021/10/04 11:51:28;;;;;;;13.53;4.93;;;15.00;97.30;;;;;;5074228;28;20457;-82
2021/10/04 11:53:54;;;;;;;5.60;3.17;;;15.00;97.30;;;;;;5076247;28;20161;-85
2021/10/04 11:56:21;;;;;;;4.00;2.90;;;15.00;97.30;;;;;;5075980;28;20405;-85
2021/10/04 11:58:49;;;;;;;4.93;3.00;;;15.00;97.30;;;;;;5076370;28;20496;-84
2021/10/04 12:01:30;;;;;;;5.27;2.70;;;15.00;97.30;;;;;;5076934;28;20436;-84
2021/10/04 12:04:01;;;;;;;3.20;1.70;;;14.90;97.30;;;;;;5076043;28;20409;-85
2021/10/04 12:06:28;;;;;;;2.13;1.73;;;14.90;97.30;;;;;;5075648;28;20958;-84
2021/10/04 12:08:54;;;;;;;6.90;1.57;;;14.80;97.30;;;;;;5076023;28;20933;-84
2021/10/04 12:11:19;;;;;;;5.10;1.70;;;14.80;97.30;;;;;;5074196;28;20457;-85
2021/10/04 12:13:45;;;;;;;1.50;1.40;;;14.80;97.30;;;;;;5077062;28;20190;-84
2021/10/04 12:16:12;;;;;;;2.47;1.60;;;14.80;97.30;;;;;;5072642;28;20182;-85
2021/10/04 12:18:50;;;;;;;2.63;1.80;;;14.80;97.30;;;;;;5075835;28;20180;-84
2021/10/04 12:21:41;;;;;;;1.70;1.50;;;14.80;97.30;;;;;;5076535;28;20472;-85
2021/10/04 12:24:10;;;;;;;1.47;1.47;;;14.70;97.30;;;;;;5060383;28;20505;-84
2021/10/04 12:26:49;;;;;;;2.23;1.60;;;14.80;97.30;;;;;;5055581;28;20418;-84
2021/10/04 12:29:31;;;;;;;4.70;1.40;;;14.80;97.30;;;;;;5080697;28;20417;-84
2021/10/04 12:31:58;;;;;;;4.27;1.40;;;14.80;97.30;;;;;;5076208;28;20484;-85
2021/10/04 12:34:25;;;;;;;3.53;1.67;;;14.80;97.30;;;;;;5076787;28;20410;-84
2021/10/04 12:36:52;;;;;;;5.30;2.00;;;14.80;97.30;;;;;;5074581;28;20428;-85
2021/10/04 12:39:19;;;;;;;1.50;1.47;;;14.90;97.30;;;;;;5074924;28;20434;-84
2021/10/04 12:41:50;;;;;;;3.00;1.50;;;14.90;97.30;;;;;;5075771;28;20444;-84
2021/10/04 12:44:18;;;;;;;2.40;1.57;;;15.00;97.30;;;;;;5076020;28;20467;-85
2021/10/04 12:47:03;;;;;;;2.20;1.60;;;15.00;97.30;;;;;;5075891;28;20413;-84
2021/10/04 12:49:30;;;;;;;2.27;1.40;;;15.00;97.30;;;;;;5076705;28;20479;-84
2021/10/04 12:51:56;;;;;;;1.87;1.67;;;15.00;97.30;;;;;;5075508;28;20533;-84
2021/10/04 12:54:31;;;;;;;2.20;1.50;;;15.00;97.30;;;;;;5075361;28;20409;-85
2021/10/04 12:56:57;;;;;;;3.80;1.33;;;15.00;97.30;;;;;;5074849;28;20417;-85
2021/10/04 12:59:27;;;;;;;2.60;1.87;;;15.00;97.30;;;;;;5074868;28;20439;-84